sensor_id;sensor_type;location;lat;lon;timestamp;temperature;humidity
28763;DHT22;15918;51.270;6.522;2023-02-28T00:02:16;6.90;58.80
28763;DHT22;15918;51.270;6.522;2023-02-28T00:04:45;6.90;58.90
28763;DHT22;15918;51.270;6.522;2023-02-28T00:07:11;6.90;58.90
28763;DHT22;15918;51.270;6.522;2023-02-28T00:09:36;6.90;58.90
28763;DHT22;15918;51.270;6.522;2023-02-28T00:12:02;6.90;58.90
28763;DHT22;15918;51.270;6.522;2023-02-28T00:14:35;6.90;58.90
28763;DHT22;15918;51.270;6.522;2023-02-28T00:17:00;6.80;58.90
28763;DHT22;15918;51.270;6.522;2023-02-28T00:19:26;6.80;58.90
28763;DHT22;15918;51.270;6.522;2023-02-28T00:21:51;6.90;58.90
28763;DHT22;15918;51.270;6.522;2023-02-28T00:24:17;6.80;58.90
28763;DHT22;15918;51.270;6.522;2023-02-28T00:26:42;6.80;58.90
28763;DHT22;15918;51.270;6.522;2023-02-28T00:29:08;6.80;58.90
28763;DHT22;15918;51.270;6.522;2023-02-28T00:31:33;6.80;58.90
28763;DHT22;15918;51.270;6.522;2023-02-28T00:33:59;6.80;58.90
28763;DHT22;15918;51.270;6.522;2023-02-28T00:36:24;6.70;58.90
28763;DHT22;15918;51.270;6.522;2023-02-28T00:38:50;6.80;58.90
28763;DHT22;15918;51.270;6.522;2023-02-28T00:41:15;6.80;59.00
28763;DHT22;15918;51.270;6.522;2023-02-28T00:43:41;6.80;59.00
28763;DHT22;15918;51.270;6.522;2023-02-28T00:46:07;6.80;59.00
28763;DHT22;15918;51.270;6.522;2023-02-28T00:48:33;6.70;59.00
28763;DHT22;15918;51.270;6.522;2023-02-28T00:50:58;6.80;59.00
28763;DHT22;15918;51.270;6.522;2023-02-28T00:53:24;6.80;59.00
28763;DHT22;15918;51.270;6.522;2023-02-28T00:55:49;6.70;59.00
28763;DHT22;15918;51.270;6.522;2023-02-28T00:58:15;6.70;59.00
28763;DHT22;15918;51.270;6.522;2023-02-28T01:00:41;6.70;59.00
28763;DHT22;15918;51.270;6.522;2023-02-28T01:03:06;6.70;59.00
28763;DHT22;15918;51.270;6.522;2023-02-28T01:05:32;6.70;59.00
28763;DHT22;15918;51.270;6.522;2023-02-28T01:07:57;6.70;59.10
28763;DHT22;15918;51.270;6.522;2023-02-28T01:10:23;6.80;59.10
28763;DHT22;15918;51.270;6.522;2023-02-28T01:12:48;6.70;59.00
28763;DHT22;15918;51.270;6.522;2023-02-28T01:15:14;6.70;59.00
28763;DHT22;15918;51.270;6.522;2023-02-28T01:17:39;6.70;59.00
28763;DHT22;15918;51.270;6.522;2023-02-28T01:20:05;6.60;59.10
28763;DHT22;15918;51.270;6.522;2023-02-28T01:22:30;6.70;59.10
28763;DHT22;15918;51.270;6.522;2023-02-28T01:24:56;6.70;59.10
28763;DHT22;15918;51.270;6.522;2023-02-28T01:27:21;6.70;59.10
28763;DHT22;15918;51.270;6.522;2023-02-28T01:29:47;6.60;59.00
28763;DHT22;15918;51.270;6.522;2023-02-28T01:32:12;6.60;59.10
28763;DHT22;15918;51.270;6.522;2023-02-28T01:34:38;6.60;59.60
28763;DHT22;15918;51.270;6.522;2023-02-28T01:37:03;6.60;59.10
28763;DHT22;15918;51.270;6.522;2023-02-28T01:39:29;6.60;59.10
28763;DHT22;15918;51.270;6.522;2023-02-28T01:41:55;6.60;59.10
28763;DHT22;15918;51.270;6.522;2023-02-28T01:47:04;6.60;59.10
28763;DHT22;15918;51.270;6.522;2023-02-28T01:49:30;6.50;59.00
28763;DHT22;15918;51.270;6.522;2023-02-28T01:51:55;6.50;59.10
28763;DHT22;15918;51.270;6.522;2023-02-28T01:54:26;6.50;59.10
28763;DHT22;15918;51.270;6.522;2023-02-28T01:57:13;6.50;59.10
28763;DHT22;15918;51.270;6.522;2023-02-28T01:59:39;6.50;59.10
28763;DHT22;15918;51.270;6.522;2023-02-28T02:02:10;6.50;59.10
28763;DHT22;15918;51.270;6.522;2023-02-28T02:04:39;6.50;59.10
28763;DHT22;15918;51.270;6.522;2023-02-28T02:07:06;6.40;59.10
28763;DHT22;15918;51.270;6.522;2023-02-28T02:09:32;6.40;59.10
28763;DHT22;15918;51.270;6.522;2023-02-28T02:11:57;6.40;59.10
28763;DHT22;15918;51.270;6.522;2023-02-28T02:17:23;6.40;59.10
28763;DHT22;15918;51.270;6.522;2023-02-28T02:35:54;6.40;59.20
28763;DHT22;15918;51.270;6.522;2023-02-28T02:38:35;6.40;59.20
28763;DHT22;15918;51.270;6.522;2023-02-28T02:41:12;6.30;59.20
28763;DHT22;15918;51.270;6.522;2023-02-28T02:46:10;6.30;59.20
28763;DHT22;15918;51.270;6.522;2023-02-28T02:48:38;6.30;59.20
28763;DHT22;15918;51.270;6.522;2023-02-28T02:51:06;6.30;59.20
28763;DHT22;15918;51.270;6.522;2023-02-28T02:54:00;6.30;59.20
28763;DHT22;15918;51.270;6.522;2023-02-28T02:56:23;6.30;59.20
28763;DHT22;15918;51.270;6.522;2023-02-28T02:58:50;6.30;59.20
28763;DHT22;15918;51.270;6.522;2023-02-28T03:01:21;6.30;59.20
28763;DHT22;15918;51.270;6.522;2023-02-28T03:03:54;6.30;59.20
28763;DHT22;15918;51.270;6.522;2023-02-28T03:06:20;6.30;59.20
28763;DHT22;15918;51.270;6.522;2023-02-28T03:08:46;6.30;59.20
28763;DHT22;15918;51.270;6.522;2023-02-28T03:11:12;6.30;59.20
28763;DHT22;15918;51.270;6.522;2023-02-28T03:24:18;6.30;59.30
28763;DHT22;15918;51.270;6.522;2023-02-28T03:26:50;6.20;59.20
28763;DHT22;15918;51.270;6.522;2023-02-28T03:29:50;6.20;59.30
28763;DHT22;15918;51.270;6.522;2023-02-28T03:32:21;6.20;59.30
28763;DHT22;15918;51.270;6.522;2023-02-28T03:34:50;6.20;59.30
28763;DHT22;15918;51.270;6.522;2023-02-28T03:37:19;6.20;59.30
28763;DHT22;15918;51.270;6.522;2023-02-28T03:39:50;6.20;59.30
28763;DHT22;15918;51.270;6.522;2023-02-28T03:42:19;6.20;59.30
28763;DHT22;15918;51.270;6.522;2023-02-28T03:45:32;6.20;59.30
28763;DHT22;15918;51.270;6.522;2023-02-28T03:47:37;6.20;59.30
28763;DHT22;15918;51.270;6.522;2023-02-28T03:52:40;6.20;59.30
28763;DHT22;15918;51.270;6.522;2023-02-28T03:55:09;6.20;59.30
28763;DHT22;15918;51.270;6.522;2023-02-28T04:00:25;6.10;59.30
28763;DHT22;15918;51.270;6.522;2023-02-28T04:02:53;6.10;59.30
28763;DHT22;15918;51.270;6.522;2023-02-28T04:05:19;6.10;59.30
28763;DHT22;15918;51.270;6.522;2023-02-28T04:07:45;6.10;59.30
28763;DHT22;15918;51.270;6.522;2023-02-28T04:10:11;6.10;59.30
28763;DHT22;15918;51.270;6.522;2023-02-28T04:12:37;6.20;59.40
28763;DHT22;15918;51.270;6.522;2023-02-28T04:15:03;6.10;59.30
28763;DHT22;15918;51.270;6.522;2023-02-28T04:17:29;6.10;59.30
28763;DHT22;15918;51.270;6.522;2023-02-28T04:19:54;6.10;59.30
28763;DHT22;15918;51.270;6.522;2023-02-28T04:22:22;6.10;59.30
28763;DHT22;15918;51.270;6.522;2023-02-28T04:24:51;6.10;59.40
28763;DHT22;15918;51.270;6.522;2023-02-28T04:27:16;6.10;59.30
28763;DHT22;15918;51.270;6.522;2023-02-28T04:29:42;6.10;59.30
28763;DHT22;15918;51.270;6.522;2023-02-28T04:32:09;6.10;59.30
28763;DHT22;15918;51.270;6.522;2023-02-28T04:34:35;6.00;59.30
28763;DHT22;15918;51.270;6.522;2023-02-28T04:37:01;6.00;59.40
28763;DHT22;15918;51.270;6.522;2023-02-28T04:39:26;6.00;59.40
28763;DHT22;15918;51.270;6.522;2023-02-28T04:41:52;6.00;59.30
28763;DHT22;15918;51.270;6.522;2023-02-28T04:44:17;6.00;59.30
28763;DHT22;15918;51.270;6.522;2023-02-28T04:46:43;6.00;59.30
28763;DHT22;15918;51.270;6.522;2023-02-28T04:49:12;6.00;59.30
28763;DHT22;15918;51.270;6.522;2023-02-28T04:51:38;6.00;59.30
28763;DHT22;15918;51.270;6.522;2023-02-28T04:54:03;6.00;59.30
28763;DHT22;15918;51.270;6.522;2023-02-28T04:56:29;6.00;59.30
28763;DHT22;15918;51.270;6.522;2023-02-28T04:58:54;6.00;59.30
28763;DHT22;15918;51.270;6.522;2023-02-28T05:01:22;6.00;59.30
28763;DHT22;15918;51.270;6.522;2023-02-28T05:03:48;6.00;59.30
28763;DHT22;15918;51.270;6.522;2023-02-28T05:06:14;5.90;59.20
28763;DHT22;15918;51.270;6.522;2023-02-28T05:08:40;5.90;59.20
28763;DHT22;15918;51.270;6.522;2023-02-28T05:11:07;5.90;59.20
28763;DHT22;15918;51.270;6.522;2023-02-28T05:13:33;5.90;59.20
28763;DHT22;15918;51.270;6.522;2023-02-28T05:16:00;5.90;59.20
28763;DHT22;15918;51.270;6.522;2023-02-28T05:18:25;5.90;59.20
28763;DHT22;15918;51.270;6.522;2023-02-28T05:20:50;5.90;59.20
28763;DHT22;15918;51.270;6.522;2023-02-28T05:23:16;5.90;59.20
28763;DHT22;15918;51.270;6.522;2023-02-28T05:25:42;5.90;59.20
28763;DHT22;15918;51.270;6.522;2023-02-28T05:28:08;5.90;59.20
28763;DHT22;15918;51.270;6.522;2023-02-28T05:30:33;5.90;59.20
28763;DHT22;15918;51.270;6.522;2023-02-28T05:32:59;5.90;59.20
28763;DHT22;15918;51.270;6.522;2023-02-28T05:35:24;5.80;59.20
28763;DHT22;15918;51.270;6.522;2023-02-28T05:37:50;5.90;59.20
28763;DHT22;15918;51.270;6.522;2023-02-28T05:40:16;5.90;59.20
28763;DHT22;15918;51.270;6.522;2023-02-28T05:42:41;5.80;59.20
28763;DHT22;15918;51.270;6.522;2023-02-28T05:45:07;5.80;59.10
28763;DHT22;15918;51.270;6.522;2023-02-28T05:47:33;5.80;59.20
28763;DHT22;15918;51.270;6.522;2023-02-28T05:49:59;5.80;59.20
28763;DHT22;15918;51.270;6.522;2023-02-28T05:52:25;5.80;59.10
28763;DHT22;15918;51.270;6.522;2023-02-28T05:54:51;5.80;59.10
28763;DHT22;15918;51.270;6.522;2023-02-28T05:57:16;5.80;59.20
28763;DHT22;15918;51.270;6.522;2023-02-28T05:59:41;5.80;59.20
28763;DHT22;15918;51.270;6.522;2023-02-28T06:02:10;5.80;59.20
28763;DHT22;15918;51.270;6.522;2023-02-28T06:04:37;5.80;59.20
28763;DHT22;15918;51.270;6.522;2023-02-28T06:07:02;5.80;59.10
28763;DHT22;15918;51.270;6.522;2023-02-28T06:09:28;5.80;59.10
28763;DHT22;15918;51.270;6.522;2023-02-28T06:11:54;5.80;59.10
28763;DHT22;15918;51.270;6.522;2023-02-28T06:14:20;5.80;59.20
28763;DHT22;15918;51.270;6.522;2023-02-28T06:16:45;5.70;59.10
28763;DHT22;15918;51.270;6.522;2023-02-28T06:19:11;5.80;59.10
28763;DHT22;15918;51.270;6.522;2023-02-28T06:21:37;5.70;59.10
28763;DHT22;15918;51.270;6.522;2023-02-28T06:24:02;5.70;59.10
28763;DHT22;15918;51.270;6.522;2023-02-28T06:26:28;5.70;59.10
28763;DHT22;15918;51.270;6.522;2023-02-28T06:28:54;5.70;59.00
28763;DHT22;15918;51.270;6.522;2023-02-28T06:31:20;5.70;59.00
28763;DHT22;15918;51.270;6.522;2023-02-28T06:33:45;5.70;59.10
28763;DHT22;15918;51.270;6.522;2023-02-28T06:36:11;5.70;59.00
28763;DHT22;15918;51.270;6.522;2023-02-28T06:38:37;5.70;59.10
28763;DHT22;15918;51.270;6.522;2023-02-28T06:41:03;5.70;59.10
28763;DHT22;15918;51.270;6.522;2023-02-28T06:43:29;5.70;59.10
28763;DHT22;15918;51.270;6.522;2023-02-28T06:45:56;5.60;59.00
28763;DHT22;15918;51.270;6.522;2023-02-28T06:48:21;5.60;59.00
28763;DHT22;15918;51.270;6.522;2023-02-28T06:50:47;5.70;59.10
28763;DHT22;15918;51.270;6.522;2023-02-28T06:53:13;5.70;59.10
28763;DHT22;15918;51.270;6.522;2023-02-28T06:55:38;5.60;59.00
28763;DHT22;15918;51.270;6.522;2023-02-28T06:58:04;5.60;59.00
28763;DHT22;15918;51.270;6.522;2023-02-28T07:00:43;5.60;59.00
28763;DHT22;15918;51.270;6.522;2023-02-28T07:03:09;5.60;59.00
28763;DHT22;15918;51.270;6.522;2023-02-28T07:05:35;5.60;59.10
28763;DHT22;15918;51.270;6.522;2023-02-28T07:08:01;5.60;59.10
28763;DHT22;15918;51.270;6.522;2023-02-28T07:10:27;5.60;59.10
28763;DHT22;15918;51.270;6.522;2023-02-28T07:12:52;5.60;59.10
28763;DHT22;15918;51.270;6.522;2023-02-28T07:15:18;5.60;59.00
28763;DHT22;15918;51.270;6.522;2023-02-28T07:17:43;5.60;59.00
28763;DHT22;15918;51.270;6.522;2023-02-28T07:20:09;5.60;59.00
28763;DHT22;15918;51.270;6.522;2023-02-28T07:22:34;5.60;59.00
28763;DHT22;15918;51.270;6.522;2023-02-28T07:25:00;5.60;59.00
28763;DHT22;15918;51.270;6.522;2023-02-28T07:27:25;5.60;59.00
28763;DHT22;15918;51.270;6.522;2023-02-28T07:29:51;5.60;59.00
28763;DHT22;15918;51.270;6.522;2023-02-28T07:32:17;5.60;59.00
28763;DHT22;15918;51.270;6.522;2023-02-28T07:34:43;5.70;59.00
28763;DHT22;15918;51.270;6.522;2023-02-28T07:37:09;5.70;59.00
28763;DHT22;15918;51.270;6.522;2023-02-28T07:39:34;5.70;59.00
28763;DHT22;15918;51.270;6.522;2023-02-28T07:42:00;5.70;58.90
28763;DHT22;15918;51.270;6.522;2023-02-28T07:44:28;5.70;58.90
28763;DHT22;15918;51.270;6.522;2023-02-28T07:46:54;5.70;58.90
28763;DHT22;15918;51.270;6.522;2023-02-28T07:49:19;5.70;58.90
28763;DHT22;15918;51.270;6.522;2023-02-28T07:51:45;5.80;58.90
28763;DHT22;15918;51.270;6.522;2023-02-28T07:54:10;5.80;58.90
28763;DHT22;15918;51.270;6.522;2023-02-28T07:56:36;5.80;58.80
28763;DHT22;15918;51.270;6.522;2023-02-28T07:59:01;5.80;58.80
28763;DHT22;15918;51.270;6.522;2023-02-28T08:01:27;5.80;58.70
28763;DHT22;15918;51.270;6.522;2023-02-28T08:03:53;5.90;58.80
28763;DHT22;15918;51.270;6.522;2023-02-28T08:06:23;5.90;58.70
28763;DHT22;15918;51.270;6.522;2023-02-28T08:08:49;5.90;58.80
28763;DHT22;15918;51.270;6.522;2023-02-28T08:11:15;5.90;58.70
28763;DHT22;15918;51.270;6.522;2023-02-28T08:13:41;5.90;58.60
28763;DHT22;15918;51.270;6.522;2023-02-28T08:16:09;6.00;58.60
28763;DHT22;15918;51.270;6.522;2023-02-28T08:18:35;6.00;58.60
28763;DHT22;15918;51.270;6.522;2023-02-28T08:21:05;6.00;58.60
28763;DHT22;15918;51.270;6.522;2023-02-28T08:23:30;6.00;58.50
28763;DHT22;15918;51.270;6.522;2023-02-28T08:25:58;6.00;58.50
28763;DHT22;15918;51.270;6.522;2023-02-28T08:28:24;6.00;58.50
28763;DHT22;15918;51.270;6.522;2023-02-28T08:30:49;6.10;58.40
28763;DHT22;15918;51.270;6.522;2023-02-28T08:33:15;6.10;58.40
28763;DHT22;15918;51.270;6.522;2023-02-28T08:35:40;6.10;58.40
28763;DHT22;15918;51.270;6.522;2023-02-28T08:38:06;6.10;58.90
28763;DHT22;15918;51.270;6.522;2023-02-28T08:40:31;6.20;58.30
28763;DHT22;15918;51.270;6.522;2023-02-28T08:42:57;6.20;58.30
28763;DHT22;15918;51.270;6.522;2023-02-28T08:45:23;6.20;58.30
28763;DHT22;15918;51.270;6.522;2023-02-28T08:47:48;6.20;58.20
28763;DHT22;15918;51.270;6.522;2023-02-28T08:50:14;6.20;58.20
28763;DHT22;15918;51.270;6.522;2023-02-28T08:52:42;6.30;58.20
28763;DHT22;15918;51.270;6.522;2023-02-28T08:55:07;6.30;58.10
28763;DHT22;15918;51.270;6.522;2023-02-28T08:57:34;6.30;58.10
28763;DHT22;15918;51.270;6.522;2023-02-28T09:00:00;6.30;58.10
28763;DHT22;15918;51.270;6.522;2023-02-28T09:02:26;6.30;58.00
28763;DHT22;15918;51.270;6.522;2023-02-28T09:04:52;6.40;58.00
28763;DHT22;15918;51.270;6.522;2023-02-28T09:07:17;6.40;57.90
28763;DHT22;15918;51.270;6.522;2023-02-28T09:09:43;6.40;57.80
28763;DHT22;15918;51.270;6.522;2023-02-28T09:12:26;6.40;57.80
28763;DHT22;15918;51.270;6.522;2023-02-28T09:14:52;6.40;57.80
28763;DHT22;15918;51.270;6.522;2023-02-28T09:17:18;6.40;57.80
28763;DHT22;15918;51.270;6.522;2023-02-28T09:19:43;6.40;57.50
28763;DHT22;15918;51.270;6.522;2023-02-28T09:22:09;6.50;57.40
28763;DHT22;15918;51.270;6.522;2023-02-28T09:24:35;6.40;57.30
28763;DHT22;15918;51.270;6.522;2023-02-28T09:27:01;6.50;57.50
28763;DHT22;15918;51.270;6.522;2023-02-28T09:29:26;6.50;57.40
28763;DHT22;15918;51.270;6.522;2023-02-28T09:31:52;6.50;57.30
28763;DHT22;15918;51.270;6.522;2023-02-28T09:34:17;6.50;57.40
28763;DHT22;15918;51.270;6.522;2023-02-28T09:36:43;6.50;57.30
28763;DHT22;15918;51.270;6.522;2023-02-28T09:39:08;6.50;57.30
28763;DHT22;15918;51.270;6.522;2023-02-28T09:41:38;6.60;57.30
28763;DHT22;15918;51.270;6.522;2023-02-28T09:44:16;6.60;57.30
28763;DHT22;15918;51.270;6.522;2023-02-28T09:46:43;6.70;57.20
28763;DHT22;15918;51.270;6.522;2023-02-28T09:49:17;6.70;57.30
28763;DHT22;15918;51.270;6.522;2023-02-28T09:51:49;6.70;57.20
28763;DHT22;15918;51.270;6.522;2023-02-28T09:54:17;6.70;57.10
28763;DHT22;15918;51.270;6.522;2023-02-28T09:56:45;6.70;57.10
28763;DHT22;15918;51.270;6.522;2023-02-28T09:59:27;6.80;57.10
28763;DHT22;15918;51.270;6.522;2023-02-28T10:01:57;6.80;57.00
28763;DHT22;15918;51.270;6.522;2023-02-28T10:04:42;6.80;57.00
28763;DHT22;15918;51.270;6.522;2023-02-28T10:07:25;6.80;56.80
28763;DHT22;15918;51.270;6.522;2023-02-28T10:09:55;6.90;56.90
28763;DHT22;15918;51.270;6.522;2023-02-28T10:12:21;6.90;56.80
28763;DHT22;15918;51.270;6.522;2023-02-28T10:14:49;6.90;56.70
28763;DHT22;15918;51.270;6.522;2023-02-28T10:17:19;6.90;56.70
28763;DHT22;15918;51.270;6.522;2023-02-28T10:22:15;6.90;56.70
28763;DHT22;15918;51.270;6.522;2023-02-28T10:24:44;7.00;56.50
28763;DHT22;15918;51.270;6.522;2023-02-28T10:27:15;7.00;56.50
28763;DHT22;15918;51.270;6.522;2023-02-28T10:29:44;7.00;56.40
28763;DHT22;15918;51.270;6.522;2023-02-28T10:32:11;7.10;56.40
28763;DHT22;15918;51.270;6.522;2023-02-28T10:34:38;7.10;56.40
28763;DHT22;15918;51.270;6.522;2023-02-28T10:37:03;7.10;56.30
28763;DHT22;15918;51.270;6.522;2023-02-28T10:42:01;7.20;56.20
28763;DHT22;15918;51.270;6.522;2023-02-28T10:44:27;7.20;56.20
28763;DHT22;15918;51.270;6.522;2023-02-28T10:46:52;7.20;56.10
28763;DHT22;15918;51.270;6.522;2023-02-28T10:51:47;7.20;56.10
28763;DHT22;15918;51.270;6.522;2023-02-28T10:54:15;7.30;56.10
28763;DHT22;15918;51.270;6.522;2023-02-28T10:56:40;7.30;56.10
28763;DHT22;15918;51.270;6.522;2023-02-28T11:01:51;7.30;56.10
28763;DHT22;15918;51.270;6.522;2023-02-28T11:04:19;7.30;56.00
28763;DHT22;15918;51.270;6.522;2023-02-28T11:06:46;7.30;56.10
28763;DHT22;15918;51.270;6.522;2023-02-28T11:12:23;7.40;56.00
28763;DHT22;15918;51.270;6.522;2023-02-28T11:14:53;7.40;55.90
28763;DHT22;15918;51.270;6.522;2023-02-28T11:17:23;7.40;55.90
28763;DHT22;15918;51.270;6.522;2023-02-28T11:19:50;7.40;55.90
28763;DHT22;15918;51.270;6.522;2023-02-28T11:22:20;7.40;55.90
28763;DHT22;15918;51.270;6.522;2023-02-28T11:24:49;7.40;55.90
28763;DHT22;15918;51.270;6.522;2023-02-28T11:27:39;7.40;55.80
28763;DHT22;15918;51.270;6.522;2023-02-28T11:30:12;7.50;55.90
28763;DHT22;15918;51.270;6.522;2023-02-28T11:32:48;7.50;56.40
28763;DHT22;15918;51.270;6.522;2023-02-28T11:35:16;7.50;55.80
28763;DHT22;15918;51.270;6.522;2023-02-28T11:37:42;7.50;55.70
28763;DHT22;15918;51.270;6.522;2023-02-28T11:40:15;7.50;55.70
28763;DHT22;15918;51.270;6.522;2023-02-28T11:42:44;7.50;55.60
28763;DHT22;15918;51.270;6.522;2023-02-28T11:45:33;7.50;55.60
28763;DHT22;15918;51.270;6.522;2023-02-28T11:55:49;7.60;55.50
28763;DHT22;15918;51.270;6.522;2023-02-28T12:01:03;7.60;55.50
28763;DHT22;15918;51.270;6.522;2023-02-28T12:06:12;7.60;55.50
28763;DHT22;15918;51.270;6.522;2023-02-28T12:08:51;7.70;55.50
28763;DHT22;15918;51.270;6.522;2023-02-28T12:14:02;7.70;55.40
28763;DHT22;15918;51.270;6.522;2023-02-28T12:16:34;7.70;55.40
28763;DHT22;15918;51.270;6.522;2023-02-28T12:26:41;7.70;55.20
28763;DHT22;15918;51.270;6.522;2023-02-28T12:29:10;7.70;55.30
28763;DHT22;15918;51.270;6.522;2023-02-28T12:31:58;7.80;55.30
28763;DHT22;15918;51.270;6.522;2023-02-28T12:34:47;7.80;55.30
28763;DHT22;15918;51.270;6.522;2023-02-28T12:37:13;7.80;55.20
28763;DHT22;15918;51.270;6.522;2023-02-28T12:39:41;7.80;55.10
28763;DHT22;15918;51.270;6.522;2023-02-28T12:42:13;7.90;55.20
28763;DHT22;15918;51.270;6.522;2023-02-28T12:44:52;7.90;55.10
28763;DHT22;15918;51.270;6.522;2023-02-28T12:47:18;7.90;55.10
28763;DHT22;15918;51.270;6.522;2023-02-28T12:52:09;7.90;55.10
28763;DHT22;15918;51.270;6.522;2023-02-28T12:57:15;7.90;55.10
28763;DHT22;15918;51.270;6.522;2023-02-28T13:05:01;8.00;55.10
28763;DHT22;15918;51.270;6.522;2023-02-28T13:10:16;8.00;54.90
28763;DHT22;15918;51.270;6.522;2023-02-28T13:12:47;8.00;54.90
28763;DHT22;15918;51.270;6.522;2023-02-28T13:15:20;8.00;54.90
28763;DHT22;15918;51.270;6.522;2023-02-28T13:17:52;8.00;54.90
28763;DHT22;15918;51.270;6.522;2023-02-28T13:20:22;8.00;54.80
28763;DHT22;15918;51.270;6.522;2023-02-28T13:22:49;8.00;54.90
28763;DHT22;15918;51.270;6.522;2023-02-28T13:27:47;8.00;54.90
28763;DHT22;15918;51.270;6.522;2023-02-28T13:35:44;8.10;54.80
28763;DHT22;15918;51.270;6.522;2023-02-28T13:38:32;8.10;54.80
28763;DHT22;15918;51.270;6.522;2023-02-28T13:41:29;8.10;54.80
28763;DHT22;15918;51.270;6.522;2023-02-28T13:44:00;8.10;54.90
28763;DHT22;15918;51.270;6.522;2023-02-28T13:46:27;8.10;54.80
28763;DHT22;15918;51.270;6.522;2023-02-28T13:48:52;8.10;54.80
28763;DHT22;15918;51.270;6.522;2023-02-28T13:54:01;8.10;54.70
28763;DHT22;15918;51.270;6.522;2023-02-28T13:56:32;8.10;54.70
28763;DHT22;15918;51.270;6.522;2023-02-28T13:59:21;8.10;54.70
28763;DHT22;15918;51.270;6.522;2023-02-28T14:01:58;8.10;54.80
28763;DHT22;15918;51.270;6.522;2023-02-28T14:07:00;8.10;54.80
28763;DHT22;15918;51.270;6.522;2023-02-28T14:09:37;8.10;54.80
28763;DHT22;15918;51.270;6.522;2023-02-28T14:17:14;8.20;54.60
28763;DHT22;15918;51.270;6.522;2023-02-28T14:19:40;8.10;54.60
28763;DHT22;15918;51.270;6.522;2023-02-28T14:27:17;8.10;54.70
28763;DHT22;15918;51.270;6.522;2023-02-28T14:32:22;8.10;54.70
28763;DHT22;15918;51.270;6.522;2023-02-28T14:34:53;8.10;54.70
28763;DHT22;15918;51.270;6.522;2023-02-28T14:37:20;8.10;54.70
28763;DHT22;15918;51.270;6.522;2023-02-28T14:39:48;8.10;54.70
28763;DHT22;15918;51.270;6.522;2023-02-28T14:44:55;8.20;54.70
28763;DHT22;15918;51.270;6.522;2023-02-28T14:47:21;8.20;54.70
28763;DHT22;15918;51.270;6.522;2023-02-28T14:49:48;8.20;54.80
28763;DHT22;15918;51.270;6.522;2023-02-28T14:52:19;8.20;54.70
28763;DHT22;15918;51.270;6.522;2023-02-28T14:54:45;8.20;54.70
28763;DHT22;15918;51.270;6.522;2023-02-28T14:57:22;8.20;54.70
28763;DHT22;15918;51.270;6.522;2023-02-28T14:59:56;8.20;54.70
28763;DHT22;15918;51.270;6.522;2023-02-28T15:02:23;8.20;54.70
28763;DHT22;15918;51.270;6.522;2023-02-28T15:04:52;8.20;54.70
28763;DHT22;15918;51.270;6.522;2023-02-28T15:07:18;8.20;54.70
28763;DHT22;15918;51.270;6.522;2023-02-28T15:09:44;8.20;54.70
28763;DHT22;15918;51.270;6.522;2023-02-28T15:12:13;8.20;54.70
28763;DHT22;15918;51.270;6.522;2023-02-28T15:14:39;8.20;54.70
28763;DHT22;15918;51.270;6.522;2023-02-28T15:17:08;8.20;54.70
28763;DHT22;15918;51.270;6.522;2023-02-28T15:19:36;8.20;54.70
28763;DHT22;15918;51.270;6.522;2023-02-28T15:22:07;8.20;54.70
28763;DHT22;15918;51.270;6.522;2023-02-28T15:24:44;8.20;54.70
28763;DHT22;15918;51.270;6.522;2023-02-28T15:27:23;8.20;54.70
28763;DHT22;15918;51.270;6.522;2023-02-28T15:29:53;8.20;54.70
28763;DHT22;15918;51.270;6.522;2023-02-28T15:32:30;8.20;54.70
28763;DHT22;15918;51.270;6.522;2023-02-28T15:34:56;8.20;54.70
28763;DHT22;15918;51.270;6.522;2023-02-28T15:39:56;8.20;54.70
28763;DHT22;15918;51.270;6.522;2023-02-28T15:42:23;8.20;54.70
28763;DHT22;15918;51.270;6.522;2023-02-28T15:44:49;8.10;54.70
28763;DHT22;15918;51.270;6.522;2023-02-28T15:47:18;8.10;54.60
28763;DHT22;15918;51.270;6.522;2023-02-28T15:49:48;8.10;54.70
28763;DHT22;15918;51.270;6.522;2023-02-28T15:52:15;8.10;55.30
28763;DHT22;15918;51.270;6.522;2023-02-28T15:54:42;8.10;54.70
28763;DHT22;15918;51.270;6.522;2023-02-28T15:57:17;8.10;54.70
28763;DHT22;15918;51.270;6.522;2023-02-28T15:59:48;8.10;54.70
28763;DHT22;15918;51.270;6.522;2023-02-28T16:02:19;8.10;54.80
28763;DHT22;15918;51.270;6.522;2023-02-28T16:05:12;8.10;54.80
28763;DHT22;15918;51.270;6.522;2023-02-28T16:07:42;8.10;54.80
28763;DHT22;15918;51.270;6.522;2023-02-28T16:10:09;8.10;54.80
28763;DHT22;15918;51.270;6.522;2023-02-28T16:12:36;8.10;54.80
28763;DHT22;15918;51.270;6.522;2023-02-28T16:15:05;8.10;54.80
28763;DHT22;15918;51.270;6.522;2023-02-28T16:17:33;8.10;54.80
28763;DHT22;15918;51.270;6.522;2023-02-28T16:19:58;8.10;54.80
28763;DHT22;15918;51.270;6.522;2023-02-28T16:22:24;8.10;54.80
28763;DHT22;15918;51.270;6.522;2023-02-28T16:24:50;8.10;54.90
28763;DHT22;15918;51.270;6.522;2023-02-28T16:27:28;8.10;54.80
28763;DHT22;15918;51.270;6.522;2023-02-28T16:29:55;8.10;54.90
28763;DHT22;15918;51.270;6.522;2023-02-28T16:32:20;8.10;54.90
28763;DHT22;15918;51.270;6.522;2023-02-28T16:34:46;8.10;54.90
28763;DHT22;15918;51.270;6.522;2023-02-28T16:37:12;8.10;54.90
28763;DHT22;15918;51.270;6.522;2023-02-28T16:39:38;8.10;54.80
28763;DHT22;15918;51.270;6.522;2023-02-28T16:42:04;8.10;54.90
28763;DHT22;15918;51.270;6.522;2023-02-28T16:44:31;8.00;54.90
28763;DHT22;15918;51.270;6.522;2023-02-28T16:46:59;8.00;54.90
28763;DHT22;15918;51.270;6.522;2023-02-28T16:49:25;8.00;54.90
28763;DHT22;15918;51.270;6.522;2023-02-28T16:51:50;8.00;55.00
28763;DHT22;15918;51.270;6.522;2023-02-28T16:54:15;8.00;55.00
28763;DHT22;15918;51.270;6.522;2023-02-28T16:56:42;8.00;55.00
28763;DHT22;15918;51.270;6.522;2023-02-28T16:59:09;8.00;55.00
28763;DHT22;15918;51.270;6.522;2023-02-28T17:01:35;8.00;55.00
28763;DHT22;15918;51.270;6.522;2023-02-28T17:04:01;8.00;55.00
28763;DHT22;15918;51.270;6.522;2023-02-28T17:06:27;8.00;55.00
28763;DHT22;15918;51.270;6.522;2023-02-28T17:08:56;8.00;55.00
28763;DHT22;15918;51.270;6.522;2023-02-28T17:11:22;8.00;55.00
28763;DHT22;15918;51.270;6.522;2023-02-28T17:13:47;8.00;55.00
28763;DHT22;15918;51.270;6.522;2023-02-28T17:16:15;8.00;55.10
28763;DHT22;15918;51.270;6.522;2023-02-28T17:18:42;7.90;55.00
28763;DHT22;15918;51.270;6.522;2023-02-28T17:21:12;7.90;55.00
28763;DHT22;15918;51.270;6.522;2023-02-28T17:23:38;8.00;55.10
28763;DHT22;15918;51.270;6.522;2023-02-28T17:26:03;7.90;55.10
28763;DHT22;15918;51.270;6.522;2023-02-28T17:28:31;7.90;55.10
28763;DHT22;15918;51.270;6.522;2023-02-28T17:30:57;7.90;55.10
28763;DHT22;15918;51.270;6.522;2023-02-28T17:33:22;7.90;55.10
28763;DHT22;15918;51.270;6.522;2023-02-28T17:35:48;7.90;55.10
28763;DHT22;15918;51.270;6.522;2023-02-28T17:38:15;7.90;55.10
28763;DHT22;15918;51.270;6.522;2023-02-28T17:40:40;7.90;55.10
28763;DHT22;15918;51.270;6.522;2023-02-28T17:43:06;7.90;55.20
28763;DHT22;15918;51.270;6.522;2023-02-28T17:45:31;7.90;55.20
28763;DHT22;15918;51.270;6.522;2023-02-28T17:47:57;7.80;55.20
28763;DHT22;15918;51.270;6.522;2023-02-28T17:50:22;7.80;55.20
28763;DHT22;15918;51.270;6.522;2023-02-28T17:52:48;7.80;55.20